Lake Clear, NY

3:40 AM EDT on August 30, 2016 (GMT -0400)
Adirondack Regional | | Change Station

Elev 1660 ft 44.39 °N, 74.21 °W | Updated 10 minutes ago

Fog
Fog
45 °F
Feels Like 45 °F
N
0
Wind Variable Wind from North

Today
High -- | Low -- °F
--% Chance of Precip.
Yesterday
High -- | Low -- °F
Precip. -- in
Pressure 30.21 in
Visibility 0.5 miles
Clouds
Dew Point 44 °F
Humidity 97%
Rainfall 0.00 in
Snow Depth Not available.
6:17 AM 7:35 PM
Waning Crescent, 5% visible
SPECI KSLK 300730Z AUTO 00000KT 1/2SM FG VV002 07/07 A3021 RMK AO2 T00720067
Pressure 30.21 in
Visibility 0.5 miles
Clouds
Dew Point 44 °F
Humidity 97%
Rainfall 0.00 in
Snow Depth Not available.
6:17 AM 7:35 PM
Waning Crescent, 5% visible
SPECI KSLK 300730Z AUTO 00000KT 1/2SM FG VV002 07/07 A3021 RMK AO2 T00720067

10-Day Weather Forecast

Almanac

Astronomy

Aug. 30, 2016 Rise Set
Actual Time
Civil Twilight
Nautical Twilight
Astronomical Twilight
Moon
Length of Visible Light
Length of Day
Tomorrow will be .
, % of the Moon is Illuminated

Today's Extremes

State Highs State Lows

Community

WunderPhotos

Upload Photos

1,935,795 photos uploaded!

WunderBlog® & News

Nearby

Air Quality

  Air Quality AQ Index Pollutant
Not available.

Snow Depth

Station Depth Elevation

Earthquake Activity

City Distance Mag. Time & Date
Minimum magnitude displayed is 2.5.

Coastal Water Temperatures

Place Temperature

Stations

Nearby Weather Stations

Station Location Temp. Windchill Dew Point Humidity Wind Precip. Elev Updated Type
                   

Watches & Warnings

There are currently no watches in effect.